Time;durP1;ratioP1;P1;durP2;ratioP2;P2;SDS_P1;SDS_P2;PMS_P1;PMS_P2;Temp;Humidity;BMP_temperature;BMP_pressure;BME280_temperature;BME280_humidity;BME280_pressure;Samples;Min_cycle;Max_cycle;Signal;HPM_P1;HPM_P2
2022/01/10 00:00:03;;;;;;;26.35;5.53;;;;;;;1.69;99.80;100906.31;2055956;28;28479;-76
2022/01/10 00:01:13;;;;;;;28.25;6.38;;;;;;;1.70;99.61;100915.09;2056656;28;20047;-76
2022/01/10 00:02:15;;;;;;;22.10;5.97;;;;;;;1.71;99.24;100912.47;2055977;28;45722;-76
2022/01/10 00:03:18;;;;;;;22.33;5.38;;;;;;;1.72;99.36;100910.72;2055640;28;45077;-76
2022/01/10 00:04:20;;;;;;;25.40;6.53;;;;;;;1.74;99.73;100916.91;2056500;28;32466;-76
2022/01/10 00:05:22;;;;;;;23.67;5.57;;;;;;;1.73;99.94;100911.63;2054983;28;45623;-76
2022/01/10 00:06:24;;;;;;;23.15;5.22;;;;;;;1.72;99.65;100913.34;2055707;28;31013;-76
2022/01/10 00:07:25;;;;;;;22.77;5.88;;;;;;;1.75;99.83;100917.81;2055795;28;44163;-76
2022/01/10 00:08:27;;;;;;;24.10;5.50;;;;;;;1.76;99.28;100915.19;2055654;28;44288;-76
2022/01/10 00:09:29;;;;;;;25.20;5.40;;;;;;;1.76;99.35;100915.19;2055921;28;46144;-75
2022/01/10 00:10:35;;;;;;;20.60;4.68;;;;;;;1.76;99.78;100912.56;2054547;28;45777;-75
2022/01/10 00:11:37;;;;;;;26.67;5.85;;;;;;;1.78;99.46;100923.13;2056409;28;29256;-76
2022/01/10 00:12:39;;;;;;;23.73;5.30;;;;;;;1.79;99.85;100916.97;2055863;28;41001;-76
2022/01/10 00:13:41;;;;;;;23.42;4.28;;;;;;;1.78;99.32;100924.00;2055597;28;46867;-77
2022/01/10 00:14:43;;;;;;;21.17;5.00;;;;;;;1.79;99.79;100924.91;2055930;28;43819;-76
2022/01/10 00:15:47;;;;;;;21.55;5.13;;;;;;;1.82;99.86;100925.81;2070608;28;44423;-76
2022/01/10 00:16:49;;;;;;;23.33;5.15;;;;;;;1.80;99.99;100927.56;2070672;28;45152;-76
2022/01/10 00:17:51;;;;;;;25.50;5.22;;;;;;;1.80;99.60;100932.84;2056186;28;42581;-76
2022/01/10 00:18:53;;;;;;;28.83;5.30;;;;;;;1.78;99.20;100939.84;2055613;28;44281;-75
2022/01/10 00:19:54;;;;;;;21.52;4.18;;;;;;;1.78;99.48;100937.22;2055986;28;45975;-75
2022/01/10 00:20:58;;;;;;;23.38;4.97;;;;;;;1.79;99.75;100938.97;2055626;28;38855;-76
2022/01/10 00:22:00;;;;;;;25.60;5.13;;;;;;;1.80;99.36;100938.13;2055479;28;47759;-77
2022/01/10 00:23:02;;;;;;;24.92;4.07;;;;;;;1.78;99.68;100939.84;2055660;28;44290;-77
2022/01/10 00:24:05;;;;;;;27.20;4.95;;;;;;;1.80;99.65;100938.13;2055837;28;44440;-77
2022/01/10 00:25:08;;;;;;;29.25;5.18;;;;;;;1.82;99.39;100932.84;2055754;28;20054;-76
2022/01/10 00:26:10;;;;;;;30.17;4.90;;;;;;;1.83;99.30;100942.53;2055480;28;45020;-77
2022/01/10 00:27:11;;;;;;;23.45;5.32;;;;;;;1.84;99.43;100932.00;2055317;28;45135;-76
2022/01/10 00:28:13;;;;;;;24.77;5.22;;;;;;;1.84;99.65;100939.91;2056501;28;25509;-77
2022/01/10 00:29:15;;;;;;;19.45;4.13;;;;;;;1.85;99.71;100939.06;2055935;28;39850;-77
2022/01/10 00:30:19;;;;;;;30.67;5.07;;;;;;;1.87;99.31;100939.97;2055034;28;44578;-77
2022/01/10 00:31:21;;;;;;;21.73;4.35;;;;;;;1.86;99.55;100943.47;2048615;28;26808;-76
2022/01/10 00:32:23;;;;;;;25.55;5.25;;;;;;;1.87;99.85;100939.97;2064001;28;30077;-77
2022/01/10 00:33:25;;;;;;;32.08;5.50;;;;;;;1.87;99.83;100939.97;2072400;28;20034;-76
2022/01/10 00:34:27;;;;;;;21.67;5.43;;;;;;;1.87;99.44;100945.25;2055976;28;28224;-77
2022/01/10 00:35:29;;;;;;;20.20;4.60;;;;;;;1.87;99.55;100949.66;2065120;28;44292;-77
2022/01/10 00:36:31;;;;;;;22.02;5.20;;;;;;;1.87;99.90;100950.53;2055355;28;20044;-77
2022/01/10 00:37:34;;;;;;;23.38;4.70;;;;;;;1.88;99.24;100947.03;2047097;28;44282;-77
2022/01/10 00:38:36;;;;;;;33.10;5.32;;;;;;;1.87;99.28;100952.28;2046932;28;44480;-77
2022/01/10 00:39:37;;;;;;;22.08;4.93;;;;;;;1.87;99.32;100953.16;2047273;28;44187;-76
2022/01/10 00:40:40;;;;;;;23.25;5.85;;;;;;;1.87;99.24;100961.09;2058088;28;40882;-77
2022/01/10 00:41:42;;;;;;;29.30;5.28;;;;;;;1.86;99.59;100956.66;2055223;28;42955;-77
2022/01/10 00:42:52;;;;;;;20.25;4.57;;;;;;;1.85;99.59;100962.81;2055578;28;43903;-75
2022/01/10 00:43:54;;;;;;;23.73;4.50;;;;;;;1.84;98.97;100963.69;2055762;28;44580;-77
2022/01/10 00:45:02;;;;;;;23.70;4.93;;;;;;;1.84;99.34;100968.97;2055359;28;40639;-76
2022/01/10 00:46:04;;;;;;;27.00;4.70;;;;;;;1.83;99.59;100964.56;2063194;28;43150;-77
2022/01/10 00:47:05;;;;;;;25.65;4.78;;;;;;;1.84;99.48;100973.34;2055448;28;37895;-77
2022/01/10 00:48:07;;;;;;;20.65;5.57;;;;;;;1.81;99.70;100975.94;2046777;28;44273;-77
2022/01/10 00:49:09;;;;;;;15.73;4.05;;;;;;;1.79;99.13;100983.84;2055072;28;45986;-77
2022/01/10 00:50:11;;;;;;;21.80;4.90;;;;;;;1.80;99.75;100988.28;2054776;28;43791;-76
2022/01/10 00:51:12;;;;;;;26.02;4.78;;;;;;;1.76;99.60;100989.09;2054893;28;42582;-77
2022/01/10 00:52:18;;;;;;;23.65;4.70;;;;;;;1.75;99.04;100989.97;2056047;28;43309;-76
2022/01/10 00:53:22;;;;;;;22.63;5.28;;;;;;;1.71;99.54;100994.31;2048826;28;20157;-76
2022/01/10 00:54:24;;;;;;;24.88;5.55;;;;;;;1.69;99.17;100990.75;2056110;28;46918;-77
2022/01/10 00:55:28;;;;;;;24.40;4.38;;;;;;;1.67;99.30;100991.59;2065127;28;43106;-77
2022/01/10 00:56:32;;;;;;;24.33;5.50;;;;;;;1.66;99.38;101000.38;2063810;28;45687;-77
2022/01/10 00:57:34;;;;;;;26.85;5.93;;;;;;;1.65;99.07;100996.88;2072614;28;44691;-76
2022/01/10 00:58:38;;;;;;;27.42;5.75;;;;;;;1.62;99.10;100995.94;2072294;28;45305;-76
2022/01/10 00:59:40;;;;;;;18.83;4.38;;;;;;;1.57;99.40;100998.50;2073291;28;20945;-77
2022/01/10 01:00:42;;;;;;;20.95;5.00;;;;;;;1.55;99.01;101000.22;2072249;28;44784;-76
2022/01/10 01:01:43;;;;;;;22.85;4.88;;;;;;;1.52;98.93;101006.34;2057198;28;20086;-76
2022/01/10 01:02:45;;;;;;;20.30;4.72;;;;;;;1.52;99.12;101010.72;2056462;28;44627;-76
2022/01/10 01:03:47;;;;;;;20.38;5.50;;;;;;;1.51;98.84;101008.97;2056289;28;45423;-75
2022/01/10 01:04:52;;;;;;;25.42;5.60;;;;;;;1.50;98.99;101012.47;2072573;28;37751;-78
2022/01/10 01:05:54;;;;;;;17.13;4.75;;;;;;;1.48;99.44;101022.09;2072133;28;43332;-75
2022/01/10 01:06:55;;;;;;;24.73;5.72;;;;;;;1.48;98.91;101023.00;2056160;28;40078;-75
2022/01/10 01:08:01;;;;;;;25.90;5.68;;;;;;;1.47;98.89;101026.50;2056934;28;20133;-76
2022/01/10 01:09:07;;;;;;;24.20;5.90;;;;;;;1.47;99.55;101022.97;2056688;28;45315;-78
2022/01/10 01:10:41;;;;;;;26.30;6.53;;;;;;;1.44;99.09;101029.09;2057009;28;45214;-74
2022/01/10 01:13:02;;;;;;;22.60;5.25;;;;;;;1.36;98.75;101035.97;2057118;28;42466;-75
2022/01/10 01:14:08;;;;;;;20.30;5.40;;;;;;;1.31;98.74;101027.09;2057024;28;46382;-76
2022/01/10 01:15:23;;;;;;;14.60;4.55;;;;;;;1.29;98.91;101034.09;2057554;28;39257;-77
2022/01/10 01:17:57;;;;;;;20.65;4.95;;;;;;;1.26;98.82;101048.13;2056822;28;45883;-76
2022/01/10 01:19:30;;;;;;;26.90;6.07;;;;;;;1.26;98.83;101055.19;2057716;28;20047;-75
2022/01/10 01:20:42;;;;;;;26.20;5.55;;;;;;;1.25;99.01;101058.66;2056365;28;46555;-76
2022/01/10 01:24:51;;;;;;;31.45;5.95;;;;;;;1.25;99.07;101066.56;2031167;29;45958;-74
2022/01/10 01:25:54;;;;;;;28.60;6.28;;;;;;;1.26;99.43;101068.38;2044720;28;20063;-76
2022/01/10 01:26:56;;;;;;;26.33;5.72;;;;;;;1.26;99.00;101068.38;2048849;28;44190;-75
2022/01/10 01:27:58;;;;;;;20.73;4.88;;;;;;;1.26;99.41;101077.16;2064857;28;20085;-74
2022/01/10 01:29:01;;;;;;;26.15;6.72;;;;;;;1.28;99.84;101074.56;2064673;28;21618;-73
2022/01/10 01:30:05;;;;;;;35.25;6.70;;;;;;;1.29;99.34;101076.31;2049668;28;22281;-75
2022/01/10 01:31:10;;;;;;;30.23;6.68;;;;;;;1.29;99.63;101077.22;2047439;28;45419;-75
2022/01/10 01:32:12;;;;;;;24.83;5.45;;;;;;;1.28;99.64;101080.69;2048277;28;45558;-74
2022/01/10 01:33:15;;;;;;;25.45;5.82;;;;;;;1.29;99.25;101082.50;2056370;28;42874;-74
2022/01/10 01:34:20;;;;;;;28.60;6.10;;;;;;;1.31;99.61;101086.03;2049450;28;20106;-72
2022/01/10 01:35:24;;;;;;;28.88;6.60;;;;;;;1.32;99.82;101086.91;2048616;28;20897;-75
2022/01/10 01:36:29;;;;;;;25.30;5.47;;;;;;;1.29;99.29;101086.84;2049212;28;20032;-74
2022/01/10 01:37:31;;;;;;;23.02;5.85;;;;;;;1.28;99.57;101091.25;2056497;28;28269;-74
2022/01/10 01:38:34;;;;;;;25.15;6.22;;;;;;;1.28;99.20;101095.66;2057008;28;20864;-74
2022/01/10 01:39:35;;;;;;;27.73;7.85;;;;;;;1.28;99.58;101095.66;2050011;28;20157;-74
2022/01/10 01:40:47;;;;;;;24.95;7.45;;;;;;;1.26;99.73;101097.38;2049208;28;20087;-74
2022/01/10 01:41:57;;;;;;;30.13;6.72;;;;;;;1.23;99.20;101099.94;2055915;28;44572;-75
2022/01/10 01:42:59;;;;;;;25.45;6.82;;;;;;;1.22;98.98;101103.44;2056479;28;20043;-76
2022/01/10 01:44:03;;;;;;;25.45;6.53;;;;;;;1.21;99.37;101099.91;2048256;28;25757;-74
2022/01/10 01:45:10;;;;;;;22.13;6.57;;;;;;;1.20;99.46;101107.78;2049270;28;20071;-76
2022/01/10 01:46:13;;;;;;;27.80;5.22;;;;;;;1.18;99.38;101112.16;2048683;28;20046;-74
2022/01/10 01:47:15;;;;;;;27.02;6.40;;;;;;;1.17;99.45;101108.66;2040779;28;20048;-74
2022/01/10 01:48:17;;;;;;;25.50;6.72;;;;;;;1.14;99.02;101108.56;2040427;28;20076;-74
2022/01/10 01:49:18;;;;;;;25.05;5.57;;;;;;;1.11;98.96;101114.69;2056967;28;20055;-73
2022/01/10 01:50:20;;;;;;;27.63;6.57;;;;;;;1.08;99.04;101119.91;2064788;28;20069;-74
2022/01/10 01:51:23;;;;;;;28.02;6.75;;;;;;;1.08;98.94;101119.91;2039826;29;38645;-75
2022/01/10 01:52:28;;;;;;;31.67;6.75;;;;;;;1.10;99.09;101123.47;2033234;29;20073;-75
2022/01/10 01:53:31;;;;;;;26.33;5.55;;;;;;;1.09;99.07;101126.94;2041588;28;36967;-75
2022/01/10 01:54:33;;;;;;;24.13;5.80;;;;;;;1.08;99.44;101119.91;2057782;28;20089;-74
2022/01/10 01:55:37;;;;;;;28.73;7.25;;;;;;;1.08;99.36;101122.53;2062678;28;20097;-75
2022/01/10 01:56:39;;;;;;;26.08;7.45;;;;;;;1.11;99.53;101133.16;2064119;28;20058;-74
2022/01/10 01:57:42;;;;;;;32.78;7.35;;;;;;;1.11;99.24;101125.25;2063924;28;20932;-74
2022/01/10 01:58:45;;;;;;;33.22;7.80;;;;;;;1.13;99.74;101128.78;2064388;28;26288;-74
2022/01/10 01:59:48;;;;;;;30.83;7.25;;;;;;;1.14;99.44;101132.31;2072368;28;20074;-75
2022/01/10 02:00:51;;;;;;;31.10;7.40;;;;;;;1.12;99.64;101131.41;2055970;28;20035;-74
2022/01/10 02:01:54;;;;;;;23.15;7.00;;;;;;;1.10;99.37;101123.47;2056715;28;20043;-75
2022/01/10 02:02:56;;;;;;;20.88;6.53;;;;;;;1.05;99.78;101125.13;2048594;28;34763;-74
2022/01/10 02:04:02;;;;;;;33.90;8.00;;;;;;;1.01;99.12;101133.84;2048810;28;20901;-74
2022/01/10 02:05:05;;;;;;;31.83;7.50;;;;;;;1.00;99.15;101131.16;2055345;28;20071;-74
2022/01/10 02:06:08;;;;;;;31.27;7.90;;;;;;;0.98;99.05;101131.13;2048346;28;42530;-75
2022/01/10 02:07:11;;;;;;;32.13;8.85;;;;;;;0.96;99.30;101138.13;2056286;28;20047;-74
2022/01/10 02:08:16;;;;;;;30.23;8.10;;;;;;;0.93;99.15;101127.50;2056300;28;20035;-74
2022/01/10 02:09:18;;;;;;;29.67;8.65;;;;;;;0.93;99.54;101143.31;2055924;28;20091;-74
2022/01/10 02:10:26;;;;;;;40.03;8.38;;;;;;;0.88;99.07;101142.34;2056446;28;20150;-75
2022/01/10 02:11:29;;;;;;;40.95;8.02;;;;;;;0.87;99.36;101145.84;2056765;28;20078;-75
2022/01/10 02:12:33;;;;;;;30.27;7.88;;;;;;;0.84;99.02;101140.50;2055966;28;20047;-75
2022/01/10 02:13:40;;;;;;;27.73;7.63;;;;;;;0.81;99.20;101141.34;2056359;28;20054;-73
2022/01/10 02:14:57;;;;;;;32.78;8.45;;;;;;;0.80;98.79;101143.97;2047890;28;20083;-75
2022/01/10 02:16:03;;;;;;;39.35;10.07;;;;;;;0.75;99.05;101147.41;2048774;28;20051;-75
2022/01/10 02:17:12;;;;;;;24.23;7.20;;;;;;;0.74;99.23;101145.59;2065141;28;20129;-75
2022/01/10 02:18:21;;;;;;;25.13;6.60;;;;;;;0.70;98.77;101142.84;2054679;28;20043;-75
2022/01/10 02:19:26;;;;;;;33.78;7.20;;;;;;;0.66;98.60;101149.81;2049859;28;20052;-75
2022/01/10 02:20:30;;;;;;;39.85;8.50;;;;;;;0.73;98.86;101154.34;2056271;28;20035;-74
2022/01/10 02:21:33;;;;;;;26.88;7.10;;;;;;;0.66;98.63;101156.84;2055642;28;47436;-74
2022/01/10 02:22:38;;;;;;;31.88;8.00;;;;;;;0.64;99.06;101161.19;2048019;28;20047;-74
2022/01/10 02:23:58;;;;;;;24.88;6.07;;;;;;;0.58;98.67;101164.59;2058472;28;20050;-74
2022/01/10 02:25:04;;;;;;;28.92;7.45;;;;;;;0.56;99.10;101161.91;2060586;28;20050;-74
2022/01/10 02:26:06;;;;;;;27.02;6.25;;;;;;;0.52;98.67;101164.44;2049267;28;20032;-75
2022/01/10 02:27:10;;;;;;;24.65;5.30;;;;;;;0.49;98.90;101161.75;2064738;28;20050;-76
2022/01/10 02:28:13;;;;;;;33.60;7.57;;;;;;;0.44;98.68;101172.19;2072568;28;20914;-75
2022/01/10 02:29:17;;;;;;;28.52;5.30;;;;;;;0.43;98.89;101170.44;2072725;28;20035;-75
2022/01/10 02:30:19;;;;;;;22.80;6.80;;;;;;;0.39;98.66;101173.81;2063965;28;32887;-76
2022/01/10 02:31:21;;;;;;;22.83;6.63;;;;;;;0.34;98.58;101180.72;2055831;28;43387;-74
2022/01/10 02:32:23;;;;;;;27.00;6.38;;;;;;;0.31;98.47;101186.81;2055714;28;45628;-74
2022/01/10 02:33:31;;;;;;;26.83;7.75;;;;;;;0.31;98.70;101186.81;2048042;28;20263;-74
2022/01/10 02:34:38;;;;;;;29.38;6.63;;;;;;;0.29;98.72;101187.66;2056329;28;20157;-74
2022/01/10 02:35:50;;;;;;;32.83;7.63;;;;;;;0.27;98.69;101191.97;2056921;28;20046;-75
2022/01/10 02:36:57;;;;;;;30.38;6.95;;;;;;;0.25;98.57;101191.06;2055583;28;31632;-75
2022/01/10 02:38:01;;;;;;;24.20;7.25;;;;;;;0.23;98.84;101193.66;2057195;28;21011;-75
2022/01/10 02:39:08;;;;;;;24.27;7.18;;;;;;;0.22;98.67;101202.41;2064416;28;20168;-75
2022/01/10 02:40:14;;;;;;;27.42;7.00;;;;;;;0.17;98.54;101199.66;2072532;28;21219;-74
2022/01/10 02:41:28;;;;;;;25.48;6.80;;;;;;;0.15;98.45;101200.50;2063853;28;20070;-74
2022/01/10 02:42:29;;;;;;;27.52;7.28;;;;;;;0.11;98.71;101202.16;2055939;28;40816;-74
2022/01/10 02:43:31;;;;;;;19.77;5.57;;;;;;;0.10;98.81;101207.38;2056550;28;35726;-75
2022/01/10 02:44:34;;;;;;;22.27;6.80;;;;;;;0.08;98.71;101198.56;2072542;28;20120;-74
2022/01/10 02:45:36;;;;;;;24.50;6.53;;;;;;;0.05;98.63;101206.38;2071983;28;20065;-75
2022/01/10 02:46:40;;;;;;;25.05;5.28;;;;;;;0.04;98.56;101212.53;2055932;28;42503;-74
2022/01/10 02:47:53;;;;;;;27.95;6.32;;;;;;;-0.01;98.49;101213.28;2071750;28;20135;-75
2022/01/10 02:48:55;;;;;;;24.42;5.38;;;;;;;-0.03;98.42;101214.97;2071747;28;20132;-75
2022/01/10 02:49:58;;;;;;;26.55;7.32;;;;;;;-0.05;98.53;101216.69;2056641;28;20039;-74
2022/01/10 02:51:02;;;;;;;20.67;5.90;;;;;;;-0.05;98.71;101218.44;2055441;28;46464;-75
2022/01/10 02:52:06;;;;;;;26.25;6.82;;;;;;;-0.08;98.53;101213.97;2048872;28;20135;-73
2022/01/10 02:53:08;;;;;;;27.55;7.35;;;;;;;-0.08;98.76;101219.25;2064558;28;21046;-73
2022/01/10 02:54:14;;;;;;;36.25;8.30;;;;;;;-0.08;98.87;101223.63;2063879;28;20074;-75
2022/01/10 02:55:17;;;;;;;26.30;7.78;;;;;;;-0.09;98.75;101219.19;2048469;28;20094;-75
2022/01/10 02:56:19;;;;;;;32.15;7.97;;;;;;;-0.06;99.19;101222.78;2057092;28;20305;-75
2022/01/10 02:57:22;;;;;;;27.45;7.40;;;;;;;-0.07;98.93;101226.28;2064529;28;20043;-74
2022/01/10 02:58:24;;;;;;;28.73;7.75;;;;;;;-0.07;98.88;101231.56;2056077;28;27670;-75
2022/01/10 02:59:26;;;;;;;25.13;7.18;;;;;;;-0.06;98.97;101230.69;2048335;28;20067;-74
2022/01/10 03:00:28;;;;;;;31.48;8.02;;;;;;;-0.07;98.92;101231.56;2040409;28;20092;-76
2022/01/10 03:01:30;;;;;;;30.13;6.40;;;;;;;-0.07;99.04;101230.66;2048092;28;20043;-75
2022/01/10 03:02:34;;;;;;;22.15;7.00;;;;;;;-0.09;98.84;101238.53;2047149;28;45821;-75
2022/01/10 03:03:36;;;;;;;27.33;6.60;;;;;;;-0.14;98.84;101245.41;2040293;28;20047;-75
2022/01/10 03:04:41;;;;;;;31.75;8.95;;;;;;;-0.13;98.95;101246.28;2048293;28;20075;-74
2022/01/10 03:05:43;;;;;;;26.75;6.78;;;;;;;-0.16;98.96;101243.56;2055210;28;36957;-74
2022/01/10 03:06:45;;;;;;;19.85;6.20;;;;;;;-0.20;99.15;101243.53;2048097;28;43715;-75
2022/01/10 03:07:50;;;;;;;25.80;7.75;;;;;;;-0.18;98.78;101259.31;2055938;28;20043;-74
2022/01/10 03:08:52;;;;;;;25.83;6.20;;;;;;;-0.18;98.87;101253.19;2056192;28;20043;-73
2022/01/10 03:09:54;;;;;;;27.00;6.55;;;;;;;-0.20;98.83;101250.50;2047728;28;25085;-74
2022/01/10 03:10:57;;;;;;;27.27;6.85;;;;;;;-0.22;99.23;101253.09;2048616;28;20040;-76
2022/01/10 03:11:58;;;;;;;27.45;7.60;;;;;;;-0.19;99.38;101257.56;2056001;28;23627;-75
2022/01/10 03:13:02;;;;;;;29.50;8.20;;;;;;;-0.21;99.14;101262.78;2048348;28;37457;-75
2022/01/10 03:14:05;;;;;;;37.05;8.75;;;;;;;-0.22;99.29;101266.25;2048291;28;20086;-75
2022/01/10 03:15:08;;;;;;;21.98;6.88;;;;;;;-0.21;99.44;101265.41;2048491;28;20936;-74
2022/01/10 03:16:11;;;;;;;33.92;8.32;;;;;;;-0.21;99.48;101265.41;2055744;28;20044;-75
2022/01/10 03:17:14;;;;;;;27.70;7.68;;;;;;;-0.19;99.45;101262.81;2048109;28;20055;-75
2022/01/10 03:18:16;;;;;;;27.13;7.70;;;;;;;-0.18;99.54;101264.59;2047806;28;35783;-75
2022/01/10 03:19:17;;;;;;;31.50;9.73;;;;;;;-0.14;99.55;101265.56;2047813;28;32534;-75
2022/01/10 03:20:19;;;;;;;33.35;8.18;;;;;;;-0.17;99.72;101271.63;2048115;28;20079;-75
2022/01/10 03:21:21;;;;;;;32.25;7.32;;;;;;;-0.21;99.38;101265.41;2047324;28;45760;-74
2022/01/10 03:22:23;;;;;;;39.30;8.32;;;;;;;-0.23;98.92;101277.63;2047065;28;26053;-75
2022/01/10 03:23:27;;;;;;;39.55;9.27;;;;;;;-0.27;99.32;101269.59;2048323;28;38116;-75
2022/01/10 03:24:29;;;;;;;34.13;7.97;;;;;;;-0.31;98.97;101278.28;2047937;28;26855;-75
2022/01/10 03:25:31;;;;;;;43.85;9.30;;;;;;;-0.32;98.96;101280.03;2045743;28;20075;-75
2022/01/10 03:26:36;;;;;;;33.25;9.02;;;;;;;-0.33;98.90;101282.63;2048677;28;20898;-74
2022/01/10 03:27:39;;;;;;;27.85;7.10;;;;;;;-0.33;99.04;101286.13;2056301;28;20043;-75
2022/01/10 03:28:41;;;;;;;36.50;8.07;;;;;;;-0.36;98.48;101278.13;2056181;28;20102;-75
2022/01/10 03:29:43;;;;;;;25.42;6.45;;;;;;;-0.37;98.75;101288.66;2072277;28;20814;-75
2022/01/10 03:30:46;;;;;;;29.83;7.28;;;;;;;-0.39;99.35;101281.59;2064102;28;20137;-75
2022/01/10 03:31:52;;;;;;;24.95;6.32;;;;;;;-0.43;99.20;101295.53;2064945;28;20125;-75
2022/01/10 03:32:58;;;;;;;25.10;7.70;;;;;;;-0.43;99.23;101290.25;2056083;28;20075;-74
2022/01/10 03:34:10;;;;;;;35.20;9.20;;;;;;;-0.41;99.19;101295.56;2059271;28;20048;-75
2022/01/10 03:35:12;;;;;;;27.75;7.53;;;;;;;-0.42;99.08;101296.41;2070295;28;36858;-75
2022/01/10 03:36:14;;;;;;;27.98;6.95;;;;;;;-0.42;99.41;101296.41;2047423;28;29735;-74
2022/01/10 03:37:17;;;;;;;31.50;8.38;;;;;;;-0.45;99.07;101296.31;2056724;28;20121;-74
2022/01/10 03:38:21;;;;;;;40.13;8.93;;;;;;;-0.47;99.34;101291.00;2063837;28;20911;-74
2022/01/10 03:39:23;;;;;;;22.00;6.85;;;;;;;-0.47;98.99;101296.25;2048267;28;20876;-76
2022/01/10 03:40:25;;;;;;;33.42;8.68;;;;;;;-0.47;99.08;101293.63;2056345;28;20053;-75
2022/01/10 03:41:30;;;;;;;44.17;8.00;;;;;;;-0.48;99.67;101296.25;2072483;28;20038;-75
2022/01/10 03:42:33;;;;;;;33.80;8.60;;;;;;;-0.46;99.22;101305.94;2064027;28;20031;-75
2022/01/10 03:43:35;;;;;;;35.30;8.07;;;;;;;-0.48;99.03;101302.38;2064460;28;20168;-75
2022/01/10 03:44:38;;;;;;;34.17;8.85;;;;;;;-0.47;99.63;101308.53;2063466;28;20031;-74
2022/01/10 03:45:41;;;;;;;36.30;9.32;;;;;;;-0.49;99.34;101305.84;2048644;28;20122;-74
2022/01/10 03:46:43;;;;;;;31.08;9.55;;;;;;;-0.49;99.27;101310.22;2048182;28;20044;-75
2022/01/10 03:47:45;;;;;;;29.38;8.05;;;;;;;-0.50;98.99;101317.25;2064335;28;20051;-75
2022/01/10 03:48:47;;;;;;;39.70;10.15;;;;;;;-0.50;99.43;101319.88;2071030;28;40784;-75
2022/01/10 03:49:49;;;;;;;38.92;8.88;;;;;;;-0.49;99.06;101318.13;2056033;28;20899;-75
2022/01/10 03:50:51;;;;;;;33.20;9.48;;;;;;;-0.46;99.19;101321.72;2058075;28;20054;-74
2022/01/10 03:51:53;;;;;;;37.40;9.75;;;;;;;-0.47;99.34;101316.41;2056055;28;20039;-74
2022/01/10 03:52:55;;;;;;;29.23;7.95;;;;;;;-0.47;98.91;101319.94;2055964;28;20039;-74
2022/01/10 03:53:57;;;;;;;30.52;8.07;;;;;;;-0.47;98.84;101322.56;2064092;28;20109;-74
2022/01/10 03:54:59;;;;;;;34.50;9.38;;;;;;;-0.47;99.51;101321.69;2062692;28;41232;-74
2022/01/10 03:56:01;;;;;;;37.17;9.82;;;;;;;-0.47;99.45;101322.56;2056530;28;20047;-74
2022/01/10 03:57:05;;;;;;;48.97;11.43;;;;;;;-0.42;99.64;101317.44;2048756;28;20044;-74
2022/01/10 03:58:07;;;;;;;27.83;9.10;;;;;;;-0.44;99.46;101320.03;2047663;28;20055;-74
2022/01/10 03:59:09;;;;;;;44.83;10.73;;;;;;;-0.41;99.38;101327.13;2056261;28;25643;-74
2022/01/10 04:00:12;;;;;;;34.50;10.20;;;;;;;-0.42;99.56;101328.84;2055842;28;39738;-73
2022/01/10 04:01:17;;;;;;;33.97;9.05;;;;;;;-0.41;99.71;101335.91;2055179;28;20039;-73
2022/01/10 04:02:25;;;;;;;44.00;10.98;;;;;;;-0.41;99.77;101330.66;2055452;28;20044;-74
2022/01/10 04:03:27;;;;;;;32.88;10.32;;;;;;;-0.41;99.01;101341.16;2056241;28;20170;-74
2022/01/10 04:04:38;;;;;;;43.97;10.73;;;;;;;-0.40;99.61;101336.78;2055759;28;20042;-74
2022/01/10 04:05:41;;;;;;;45.88;11.50;;;;;;;-0.42;99.72;101339.38;2047823;28;20841;-73
2022/01/10 04:06:44;;;;;;;26.75;8.60;;;;;;;-0.39;99.68;101341.22;2055641;28;20042;-74
2022/01/10 04:07:46;;;;;;;42.33;10.50;;;;;;;-0.40;99.63;101345.56;2055239;28;39907;-73
2022/01/10 04:08:48;;;;;;;33.50;10.25;;;;;;;-0.35;99.37;101344.81;2063682;28;20042;-74
2022/01/10 04:09:51;;;;;;;38.22;11.40;;;;;;;-0.37;99.69;101349.16;2063655;28;20097;-73
2022/01/10 04:10:53;;;;;;;32.40;10.25;;;;;;;-0.37;99.52;101347.41;2055370;28;20054;-74
2022/01/10 04:11:57;;;;;;;34.83;10.07;;;;;;;-0.36;99.21;101345.66;2071395;28;20104;-74
2022/01/10 04:13:03;;;;;;;37.13;10.82;;;;;;;-0.34;99.77;101351.84;2063085;28;20050;-74
2022/01/10 04:14:05;;;;;;;46.72;12.88;;;;;;;-0.26;99.46;101350.34;2048905;28;20047;-73
2022/01/10 04:15:08;;;;;;;39.50;11.07;;;;;;;-0.30;99.90;101352.00;2047288;28;28163;-74
2022/01/10 04:16:10;;;;;;;44.63;12.57;;;;;;;-0.28;99.68;101358.19;2055869;28;20934;-75
2022/01/10 04:17:13;;;;;;;37.00;11.10;;;;;;;-0.28;99.35;101362.56;2055740;28;20897;-74
2022/01/10 04:18:15;;;;;;;45.45;11.90;;;;;;;-0.25;99.97;101355.66;2055072;28;20062;-73
2022/01/10 04:19:17;;;;;;;36.88;11.25;;;;;;;-0.25;99.90;101357.38;2064257;28;20066;-74
2022/01/10 04:20:19;;;;;;;49.60;12.27;;;;;;;-0.25;99.71;101360.00;2055575;28;24681;-74
2022/01/10 04:21:23;;;;;;;40.15;11.65;;;;;;;-0.27;99.73;101364.31;2047922;28;20075;-74
2022/01/10 04:22:24;;;;;;;40.70;11.18;;;;;;;-0.24;99.94;101367.06;2063554;28;26720;-74
2022/01/10 04:23:26;;;;;;;51.05;12.88;;;;;;;-0.21;100.00;101368.03;2063413;28;41881;-73
2022/01/10 04:24:28;;;;;;;42.20;12.55;;;;;;;-0.21;99.93;101369.78;2046767;28;31101;-74
2022/01/10 04:25:29;;;;;;;53.00;12.20;;;;;;;-0.20;99.62;101371.53;2063137;28;39240;-74
2022/01/10 04:26:31;;;;;;;43.92;11.60;;;;;;;-0.20;99.68;101371.53;2063454;28;21022;-74
2022/01/10 04:27:33;;;;;;;37.63;11.23;;;;;;;-0.20;100.00;101374.19;2055150;28;26638;-74
2022/01/10 04:28:35;;;;;;;54.60;12.38;;;;;;;-0.15;99.76;101385.72;2071538;28;20922;-74
2022/01/10 04:29:37;;;;;;;35.78;10.48;;;;;;;-0.16;99.95;101385.69;2063802;28;20043;-74
2022/01/10 04:30:39;;;;;;;44.08;12.02;;;;;;;-0.12;99.74;101384.94;2047346;28;20066;-74
2022/01/10 04:31:41;;;;;;;39.75;12.27;;;;;;;-0.12;99.95;101384.94;2047031;28;20040;-74
2022/01/10 04:32:44;;;;;;;45.35;10.55;;;;;;;-0.12;99.56;101385.81;2055650;28;20872;-74
2022/01/10 04:33:48;;;;;;;38.25;11.05;;;;;;;-0.11;100.00;101387.59;2055746;28;41786;-74
2022/01/10 04:34:51;;;;;;;51.38;12.57;;;;;;;-0.11;100.00;101395.47;2056634;28;20039;-73
2022/01/10 04:35:53;;;;;;;36.75;10.52;;;;;;;-0.12;99.81;101393.72;2071891;28;21072;-73
2022/01/10 04:36:55;;;;;;;29.98;10.15;;;;;;;-0.14;99.68;101392.78;2071487;28;20046;-73
2022/01/10 04:37:58;;;;;;;35.40;10.77;;;;;;;-0.15;100.00;101393.63;2055655;28;20940;-74
2022/01/10 04:39:01;;;;;;;48.42;12.07;;;;;;;-0.15;99.70;101398.88;2047946;28;20043;-74
2022/01/10 04:40:08;;;;;;;45.58;11.00;;;;;;;-0.16;100.00;101398.84;2056077;28;20871;-73
2022/01/10 04:41:10;;;;;;;32.30;9.23;;;;;;;-0.17;99.50;101395.31;2063994;28;20101;-74
2022/01/10 04:42:12;;;;;;;42.63;10.90;;;;;;;-0.20;99.95;101401.41;2063643;28;20135;-73
2022/01/10 04:43:14;;;;;;;45.33;10.50;;;;;;;-0.24;99.69;101407.41;2063480;28;20085;-73
2022/01/10 04:44:16;;;;;;;33.42;9.45;;;;;;;-0.26;99.13;101398.59;2055576;28;20031;-74
2022/01/10 04:45:19;;;;;;;36.00;9.65;;;;;;;-0.24;99.35;101411.78;2064012;28;20047;-73
2022/01/10 04:46:21;;;;;;;40.40;10.35;;;;;;;-0.23;99.84;101408.31;2063188;28;20046;-73
2022/01/10 04:47:23;;;;;;;38.17;10.40;;;;;;;-0.25;99.43;101416.16;2063408;28;20058;-73
2022/01/10 04:48:25;;;;;;;40.90;10.93;;;;;;;-0.25;99.52;101418.78;2063506;28;20129;-73
2022/01/10 04:49:27;;;;;;;43.88;10.90;;;;;;;-0.25;99.83;101421.44;2047085;28;42249;-74
2022/01/10 04:51:10;;;;;;;34.88;10.02;;;;;;;-0.26;99.91;101424.88;2046439;28;26295;-73
2022/01/10 04:52:06;;;;;;;32.75;9.65;;;;;;;-0.26;99.37;101429.28;2068278;28;20850;-73
2022/01/10 04:53:07;;;;;;;41.65;10.95;;;;;;;-0.24;99.35;101432.84;2063342;28;20075;-73
2022/01/10 04:54:09;;;;;;;40.22;11.20;;;;;;;-0.25;99.72;101434.59;2062799;28;29206;-73
2022/01/10 04:55:12;;;;;;;31.15;8.70;;;;;;;-0.25;100.00;101436.31;2063444;28;20098;-74
2022/01/10 04:56:17;;;;;;;42.20;11.77;;;;;;;-0.25;99.85;101436.31;2046933;28;33539;-73
2022/01/10 04:57:22;;;;;;;41.30;10.93;;;;;;;-0.21;99.42;101435.56;2056243;28;20039;-73
2022/01/10 04:58:26;;;;;;;32.75;9.45;;;;;;;-0.22;99.99;101437.28;2055380;28;20047;-73
2022/01/10 04:59:28;;;;;;;38.85;11.00;;;;;;;-0.20;100.00;101437.31;2056202;28;20039;-73